sensor_id;sensor_type;location;lat;lon;timestamp;pressure;altitude;pressure_sealevel;temperature;humidity
8627;BME280;4351;51.422;6.794;2023-05-10T00:01:22;105368.84;;;13.94;49.45
8627;BME280;4351;51.422;6.794;2023-05-10T00:03:50;105371.56;;;13.94;49.28
8627;BME280;4351;51.422;6.794;2023-05-10T00:06:18;105394.22;;;13.94;49.08
8627;BME280;4351;51.422;6.794;2023-05-10T00:08:48;105391.50;;;13.93;49.10
8627;BME280;4351;51.422;6.794;2023-05-10T00:11:16;105369.78;;;13.93;49.01
8627;BME280;4351;51.422;6.794;2023-05-10T00:13:45;105348.94;;;13.91;48.98
8627;BME280;4351;51.422;6.794;2023-05-10T00:16:13;105274.75;;;13.85;49.13
8627;BME280;4351;51.422;6.794;2023-05-10T00:18:41;105288.31;;;13.96;49.04
8627;BME280;4351;51.422;6.794;2023-05-10T00:21:09;105251.19;;;13.98;49.10
8627;BME280;4351;51.422;6.794;2023-05-10T00:23:37;105110.91;;;13.97;49.39
8627;BME280;4351;51.422;6.794;2023-05-10T00:26:07;104983.31;;;13.94;49.83
8627;BME280;4351;51.422;6.794;2023-05-10T00:28:36;104912.75;;;13.92;50.22
8627;BME280;4351;51.422;6.794;2023-05-10T00:31:04;104816.88;;;13.85;50.77
8627;BME280;4351;51.422;6.794;2023-05-10T00:33:32;104740.84;;;13.88;51.28
8627;BME280;4351;51.422;6.794;2023-05-10T00:36:02;104670.28;;;13.88;51.95
8627;BME280;4351;51.422;6.794;2023-05-10T00:38:30;104497.63;;;13.75;53.17
8627;BME280;4351;51.422;6.794;2023-05-10T00:40:58;104371.69;;;13.87;54.24
8627;BME280;4351;51.422;6.794;2023-05-10T00:43:31;104226.03;;;13.87;56.09
8627;BME280;4351;51.422;6.794;2023-05-10T00:45:59;104088.59;;;13.83;58.79
8627;BME280;4351;51.422;6.794;2023-05-10T00:48:28;103969.19;;;13.83;63.57
8627;BME280;4351;51.422;6.794;2023-05-10T00:50:57;103802.84;;;13.79;75.28
8627;BME280;4351;51.422;6.794;2023-05-10T00:53:25;103672.31;;;13.90;95.52
8627;BME280;4351;51.422;6.794;2023-05-10T00:55:55;103587.22;;;13.91;100.00
8627;BME280;4351;51.422;6.794;2023-05-10T00:58:24;103502.50;;;13.82;100.00
8627;BME280;4351;51.422;6.794;2023-05-10T01:00:56;103466.38;;;13.79;100.00
8627;BME280;4351;51.422;6.794;2023-05-10T01:03:25;103478.09;;;13.80;100.00
8627;BME280;4351;51.422;6.794;2023-05-10T01:05:54;103499.72;;;13.83;100.00
8627;BME280;4351;51.422;6.794;2023-05-10T01:08:24;103546.63;;;13.88;100.00
8627;BME280;4351;51.422;6.794;2023-05-10T01:10:52;103514.38;;;13.77;100.00
8627;BME280;4351;51.422;6.794;2023-05-10T01:13:30;103499.16;;;13.72;100.00
8627;BME280;4351;51.422;6.794;2023-05-10T01:16:00;103505.25;;;13.80;100.00
8627;BME280;4351;51.422;6.794;2023-05-10T01:18:30;103460.25;;;13.73;100.00
8627;BME280;4351;51.422;6.794;2023-05-10T01:21:08;103487.19;;;13.79;100.00
8627;BME280;4351;51.422;6.794;2023-05-10T01:23:50;103480.16;;;13.73;100.00
8627;BME280;4351;51.422;6.794;2023-05-10T01:26:46;103472.88;;;13.74;100.00
8627;BME280;4351;51.422;6.794;2023-05-10T01:30:05;103482.75;;;13.76;100.00
8627;BME280;4351;51.422;6.794;2023-05-10T01:32:46;103465.91;;;13.65;100.00
8627;BME280;4351;51.422;6.794;2023-05-10T01:35:19;103441.63;;;13.60;100.00
8627;BME280;4351;51.422;6.794;2023-05-10T01:37:58;103438.00;;;13.61;100.00
8627;BME280;4351;51.422;6.794;2023-05-10T01:40:30;103442.50;;;13.62;100.00
8627;BME280;4351;51.422;6.794;2023-05-10T01:43:02;103461.56;;;13.59;100.00
8627;BME280;4351;51.422;6.794;2023-05-10T01:45:33;103446.06;;;13.64;100.00
8627;BME280;4351;51.422;6.794;2023-05-10T01:48:08;103427.06;;;13.64;100.00
8627;BME280;4351;51.422;6.794;2023-05-10T01:50:43;103428.94;;;13.62;100.00
8627;BME280;4351;51.422;6.794;2023-05-10T01:53:18;103421.66;;;13.64;100.00
8627;BME280;4351;51.422;6.794;2023-05-10T01:56:00;103385.53;;;13.62;100.00
8627;BME280;4351;51.422;6.794;2023-05-10T01:58:40;103361.22;;;13.59;100.00
8627;BME280;4351;51.422;6.794;2023-05-10T02:01:26;103345.00;;;13.58;100.00
8627;BME280;4351;51.422;6.794;2023-05-10T02:04:10;103354.00;;;13.58;100.00
8627;BME280;4351;51.422;6.794;2023-05-10T02:06:53;103353.97;;;13.60;100.00
8627;BME280;4351;51.422;6.794;2023-05-10T02:09:25;103331.59;;;13.51;100.00
8627;BME280;4351;51.422;6.794;2023-05-10T02:12:02;103302.47;;;13.58;100.00
8627;BME280;4351;51.422;6.794;2023-05-10T02:14:43;103291.75;;;13.55;100.00
8627;BME280;4351;51.422;6.794;2023-05-10T02:17:28;103311.44;;;13.60;100.00
8627;BME280;4351;51.422;6.794;2023-05-10T02:20:18;103333.31;;;13.54;100.00
8627;BME280;4351;51.422;6.794;2023-05-10T02:23:02;103374.94;;;13.53;100.00
8627;BME280;4351;51.422;6.794;2023-05-10T02:25:38;103400.25;;;13.53;100.00
8627;BME280;4351;51.422;6.794;2023-05-10T02:28:15;103444.50;;;13.54;100.00
8627;BME280;4351;51.422;6.794;2023-05-10T02:30:56;103483.63;;;13.45;100.00
8627;BME280;4351;51.422;6.794;2023-05-10T02:33:31;103534.97;;;13.53;100.00
8627;BME280;4351;51.422;6.794;2023-05-10T02:36:16;103581.13;;;13.50;100.00
8627;BME280;4351;51.422;6.794;2023-05-10T02:38:53;103624.63;;;13.47;100.00
8627;BME280;4351;51.422;6.794;2023-05-10T02:41:36;103682.66;;;13.39;100.00
8627;BME280;4351;51.422;6.794;2023-05-10T02:44:15;103778.47;;;13.40;100.00
8627;BME280;4351;51.422;6.794;2023-05-10T02:46:58;103889.56;;;13.44;100.00
8627;BME280;4351;51.422;6.794;2023-05-10T02:49:41;104009.66;;;13.51;100.00
8627;BME280;4351;51.422;6.794;2023-05-10T02:52:23;104087.47;;;13.48;100.00
8627;BME280;4351;51.422;6.794;2023-05-10T02:55:03;104180.56;;;13.50;100.00
8627;BME280;4351;51.422;6.794;2023-05-10T02:57:43;104302.53;;;13.56;100.00
8627;BME280;4351;51.422;6.794;2023-05-10T03:00:15;104371.38;;;13.47;100.00
8627;BME280;4351;51.422;6.794;2023-05-10T03:02:46;104407.63;;;13.41;96.96
8627;BME280;4351;51.422;6.794;2023-05-10T03:05:18;104410.41;;;13.38;90.04
8627;BME280;4351;51.422;6.794;2023-05-10T03:08:02;104457.31;;;13.45;82.13
8627;BME280;4351;51.422;6.794;2023-05-10T03:10:50;104511.56;;;13.45;75.52
8627;BME280;4351;51.422;6.794;2023-05-10T03:13:39;104575.72;;;13.48;69.86
8627;BME280;4351;51.422;6.794;2023-05-10T03:16:27;104645.31;;;13.53;65.42
8627;BME280;4351;51.422;6.794;2023-05-10T03:19:11;104640.91;;;13.41;64.03
8627;BME280;4351;51.422;6.794;2023-05-10T03:21:47;104734.88;;;13.49;61.31
8627;BME280;4351;51.422;6.794;2023-05-10T03:24:36;104808.09;;;13.52;59.04
8627;BME280;4351;51.422;6.794;2023-05-10T03:27:14;104875.94;;;13.55;57.58
8627;BME280;4351;51.422;6.794;2023-05-10T03:29:45;104890.44;;;13.46;57.03
8627;BME280;4351;51.422;6.794;2023-05-10T03:32:16;104913.03;;;13.48;56.32
8627;BME280;4351;51.422;6.794;2023-05-10T03:34:52;104931.09;;;13.52;55.64
8627;BME280;4351;51.422;6.794;2023-05-10T03:37:34;104954.59;;;13.58;55.23
8627;BME280;4351;51.422;6.794;2023-05-10T03:40:18;104977.19;;;13.54;54.92
8627;BME280;4351;51.422;6.794;2023-05-10T03:43:02;105013.41;;;13.48;54.59
8627;BME280;4351;51.422;6.794;2023-05-10T03:45:42;105053.19;;;13.48;54.23
8627;BME280;4351;51.422;6.794;2023-05-10T03:48:20;105109.25;;;13.52;53.84
8627;BME280;4351;51.422;6.794;2023-05-10T03:50:59;105136.41;;;13.49;53.75
8627;BME280;4351;51.422;6.794;2023-05-10T03:53:39;105201.53;;;13.58;53.24
8627;BME280;4351;51.422;6.794;2023-05-10T03:56:16;105208.78;;;13.59;53.00
8627;BME280;4351;51.422;6.794;2023-05-10T04:01:50;105213.28;;;13.60;52.74
8627;BME280;4351;51.422;6.794;2023-05-10T04:04:27;105222.34;;;13.62;52.67
8627;BME280;4351;51.422;6.794;2023-05-10T04:06:57;105254.00;;;13.62;52.52
8627;BME280;4351;51.422;6.794;2023-05-10T04:09:36;105303.75;;;13.59;52.35
8627;BME280;4351;51.422;6.794;2023-05-10T04:12:11;105295.59;;;13.53;52.67
8627;BME280;4351;51.422;6.794;2023-05-10T04:14:55;105334.50;;;13.53;52.51
8627;BME280;4351;51.422;6.794;2023-05-10T04:17:43;105369.78;;;13.55;52.43
8627;BME280;4351;51.422;6.794;2023-05-10T04:20:18;105455.75;;;13.64;52.19
8627;BME280;4351;51.422;6.794;2023-05-10T04:23:03;105455.75;;;13.62;52.20
8627;BME280;4351;51.422;6.794;2023-05-10T04:25:48;105449.41;;;13.59;52.20
8627;BME280;4351;51.422;6.794;2023-05-10T04:28:26;105436.72;;;13.56;52.23
8627;BME280;4351;51.422;6.794;2023-05-10T04:31:07;105442.16;;;13.59;52.27
8627;BME280;4351;51.422;6.794;2023-05-10T04:33:47;105462.06;;;13.66;52.08
8627;BME280;4351;51.422;6.794;2023-05-10T04:36:28;105462.97;;;13.68;52.03
8627;BME280;4351;51.422;6.794;2023-05-10T04:39:08;105442.16;;;13.56;52.17
8627;BME280;4351;51.422;6.794;2023-05-10T04:41:41;105477.44;;;13.67;51.95
8627;BME280;4351;51.422;6.794;2023-05-10T04:44:19;105461.19;;;13.70;52.00
8627;BME280;4351;51.422;6.794;2023-05-10T04:46:57;105478.38;;;13.71;51.92
8627;BME280;4351;51.422;6.794;2023-05-10T04:49:35;105410.50;;;13.67;52.08
8627;BME280;4351;51.422;6.794;2023-05-10T04:52:19;105357.13;;;13.70;52.32
8627;BME280;4351;51.422;6.794;2023-05-10T04:54:51;105255.81;;;13.61;52.75
8627;BME280;4351;51.422;6.794;2023-05-10T04:57:19;105229.53;;;13.79;52.83
8627;BME280;4351;51.422;6.794;2023-05-10T04:59:50;105190.63;;;13.74;53.31
8627;BME280;4351;51.422;6.794;2023-05-10T05:02:21;105152.66;;;13.71;53.66
8627;BME280;4351;51.422;6.794;2023-05-10T05:05:04;105158.03;;;13.78;53.81
8627;BME280;4351;51.422;6.794;2023-05-10T05:07:44;105097.47;;;13.67;54.41
8627;BME280;4351;51.422;6.794;2023-05-10T05:10:22;105081.16;;;13.72;54.65
8627;BME280;4351;51.422;6.794;2023-05-10T05:13:03;105020.59;;;13.66;55.22
8627;BME280;4351;51.422;6.794;2023-05-10T05:15:40;105009.69;;;13.73;55.53
8627;BME280;4351;51.422;6.794;2023-05-10T05:18:18;104990.69;;;13.73;55.87
8627;BME280;4351;51.422;6.794;2023-05-10T05:21:00;105000.66;;;13.71;56.19
8627;BME280;4351;51.422;6.794;2023-05-10T05:23:37;104997.91;;;13.77;56.38
8627;BME280;4351;51.422;6.794;2023-05-10T05:26:13;104931.06;;;13.62;57.11
8627;BME280;4351;51.422;6.794;2023-05-10T05:28:52;104978.91;;;13.77;56.96
8627;BME280;4351;51.422;6.794;2023-05-10T05:31:28;104948.13;;;13.78;57.30
8627;BME280;4351;51.422;6.794;2023-05-10T05:34:00;104903.84;;;13.73;57.79
8627;BME280;4351;51.422;6.794;2023-05-10T05:36:39;104930.06;;;13.74;57.92
8627;BME280;4351;51.422;6.794;2023-05-10T05:39:14;104939.09;;;13.79;58.00
8627;BME280;4351;51.422;6.794;2023-05-10T05:42:00;104921.84;;;13.83;58.19
8627;BME280;4351;51.422;6.794;2023-05-10T05:44:34;104948.09;;;13.86;58.24
8627;BME280;4351;51.422;6.794;2023-05-10T05:47:17;104945.38;;;13.86;58.50
8627;BME280;4351;51.422;6.794;2023-05-10T05:49:59;104937.25;;;13.84;58.63
8627;BME280;4351;51.422;6.794;2023-05-10T05:52:34;104918.19;;;13.87;59.07
8627;BME280;4351;51.422;6.794;2023-05-10T05:55:08;104882.91;;;13.87;59.54
8627;BME280;4351;51.422;6.794;2023-05-10T05:57:51;104750.75;;;13.93;60.94
8627;BME280;4351;51.422;6.794;2023-05-10T06:00:26;104674.66;;;13.99;62.58
8627;BME280;4351;51.422;6.794;2023-05-10T06:03:13;104539.88;;;13.95;66.77
8627;BME280;4351;51.422;6.794;2023-05-10T06:05:50;104434.91;;;13.95;72.57
8627;BME280;4351;51.422;6.794;2023-05-10T06:08:36;104369.75;;;13.95;81.84
8627;BME280;4351;51.422;6.794;2023-05-10T06:11:19;104319.00;;;13.99;93.09
8627;BME280;4351;51.422;6.794;2023-05-10T06:13:59;104272.91;;;13.96;100.00
8627;BME280;4351;51.422;6.794;2023-05-10T06:16:32;104196.22;;;13.86;100.00
8627;BME280;4351;51.422;6.794;2023-05-10T06:19:10;104095.56;;;13.97;100.00
8627;BME280;4351;51.422;6.794;2023-05-10T06:21:45;103924.59;;;13.95;100.00
8627;BME280;4351;51.422;6.794;2023-05-10T06:24:33;103782.72;;;13.88;100.00
8627;BME280;4351;51.422;6.794;2023-05-10T06:27:17;103744.38;;;14.01;100.00
8627;BME280;4351;51.422;6.794;2023-05-10T06:29:51;103645.16;;;13.90;100.00
8627;BME280;4351;51.422;6.794;2023-05-10T06:32:44;103541.16;;;13.90;100.00
8627;BME280;4351;51.422;6.794;2023-05-10T06:35:30;103446.44;;;13.81;100.00
8627;BME280;4351;51.422;6.794;2023-05-10T06:38:14;103406.56;;;13.84;100.00
8627;BME280;4351;51.422;6.794;2023-05-10T06:41:02;103347.69;;;13.86;100.00
8627;BME280;4351;51.422;6.794;2023-05-10T06:43:46;103287.09;;;13.86;100.00
8627;BME280;4351;51.422;6.794;2023-05-10T06:46:24;103276.81;;;13.96;100.00
8627;BME280;4351;51.422;6.794;2023-05-10T06:49:04;103270.47;;;13.97;100.00
8627;BME280;4351;51.422;6.794;2023-05-10T06:51:47;103232.41;;;13.98;100.00
8627;BME280;4351;51.422;6.794;2023-05-10T06:54:22;103183.94;;;13.87;100.00
8627;BME280;4351;51.422;6.794;2023-05-10T06:57:06;103130.44;;;13.91;100.00
8627;BME280;4351;51.422;6.794;2023-05-10T07:00:05;103096.88;;;13.94;100.00
8627;BME280;4351;51.422;6.794;2023-05-10T07:02:52;103032.00;;;13.87;100.00
8627;BME280;4351;51.422;6.794;2023-05-10T07:05:27;102989.53;;;13.86;100.00
8627;BME280;4351;51.422;6.794;2023-05-10T07:08:03;102983.72;;;13.96;100.00
8627;BME280;4351;51.422;6.794;2023-05-10T07:10:32;102946.81;;;13.91;100.00
8627;BME280;4351;51.422;6.794;2023-05-10T07:13:05;102932.25;;;13.94;100.00
8627;BME280;4351;51.422;6.794;2023-05-10T07:15:45;102932.00;;;14.00;100.00
8627;BME280;4351;51.422;6.794;2023-05-10T07:18:20;102932.81;;;14.02;100.00
8627;BME280;4351;51.422;6.794;2023-05-10T07:20:57;102935.59;;;14.01;100.00
8627;BME280;4351;51.422;6.794;2023-05-10T07:23:35;102939.38;;;13.97;100.00
8627;BME280;4351;51.422;6.794;2023-05-10T07:26:14;102917.59;;;13.98;100.00
8627;BME280;4351;51.422;6.794;2023-05-10T07:29:01;102905.19;;;13.93;100.00
8627;BME280;4351;51.422;6.794;2023-05-10T07:31:41;102896.53;;;14.05;100.00
8627;BME280;4351;51.422;6.794;2023-05-10T07:34:16;102847.78;;;14.02;100.00
8627;BME280;4351;51.422;6.794;2023-05-10T07:36:54;102844.22;;;14.01;100.00
8627;BME280;4351;51.422;6.794;2023-05-10T07:39:41;102872.09;;;14.05;100.00
8627;BME280;4351;51.422;6.794;2023-05-10T07:42:19;102923.22;;;14.16;100.00
8627;BME280;4351;51.422;6.794;2023-05-10T07:45:00;102970.91;;;14.23;100.00
8627;BME280;4351;51.422;6.794;2023-05-10T07:47:45;102958.91;;;14.29;100.00
8627;BME280;4351;51.422;6.794;2023-05-10T07:50:30;102874.34;;;14.39;100.00
8627;BME280;4351;51.422;6.794;2023-05-10T07:53:11;102755.97;;;14.34;100.00
8627;BME280;4351;51.422;6.794;2023-05-10T07:55:50;102736.06;;;14.34;100.00
8627;BME280;4351;51.422;6.794;2023-05-10T07:58:37;102647.78;;;14.25;100.00
8627;BME280;4351;51.422;6.794;2023-05-10T08:01:14;102617.94;;;14.25;100.00
8627;BME280;4351;51.422;6.794;2023-05-10T08:03:48;102573.47;;;14.47;100.00
8627;BME280;4351;51.422;6.794;2023-05-10T08:06:33;102657.53;;;14.29;100.00
8627;BME280;4351;51.422;6.794;2023-05-10T08:09:06;102632.59;;;14.21;100.00
8627;BME280;4351;51.422;6.794;2023-05-10T08:11:47;102614.25;;;14.26;100.00
8627;BME280;4351;51.422;6.794;2023-05-10T08:14:24;102631.28;;;14.49;100.00
8627;BME280;4351;51.422;6.794;2023-05-10T08:17:02;102616.31;;;14.40;100.00
8627;BME280;4351;51.422;6.794;2023-05-10T08:19:41;102600.53;;;14.48;100.00
8627;BME280;4351;51.422;6.794;2023-05-10T08:22:18;102583.72;;;14.59;100.00
8627;BME280;4351;51.422;6.794;2023-05-10T08:24:58;102571.59;;;14.86;100.00
8627;BME280;4351;51.422;6.794;2023-05-10T08:27:38;102457.00;;;14.78;100.00
8627;BME280;4351;51.422;6.794;2023-05-10T08:30:16;102347.44;;;14.77;100.00
8627;BME280;4351;51.422;6.794;2023-05-10T08:32:58;102246.13;;;14.75;100.00
8627;BME280;4351;51.422;6.794;2023-05-10T08:35:37;102164.66;;;14.75;100.00
8627;BME280;4351;51.422;6.794;2023-05-10T08:38:17;102078.34;;;14.80;100.00
8627;BME280;4351;51.422;6.794;2023-05-10T08:41:02;102011.59;;;14.76;100.00
8627;BME280;4351;51.422;6.794;2023-05-10T08:43:44;101961.09;;;14.88;100.00
8627;BME280;4351;51.422;6.794;2023-05-10T08:46:26;101914.25;;;14.85;100.00
8627;BME280;4351;51.422;6.794;2023-05-10T08:49:01;101875.63;;;14.94;100.00
8627;BME280;4351;51.422;6.794;2023-05-10T08:51:47;101810.22;;;14.82;100.00
8627;BME280;4351;51.422;6.794;2023-05-10T08:54:26;101754.75;;;14.87;100.00
8627;BME280;4351;51.422;6.794;2023-05-10T08:57:04;101714.78;;;14.89;100.00
8627;BME280;4351;51.422;6.794;2023-05-10T08:59:45;101642.69;;;14.98;100.00
8627;BME280;4351;51.422;6.794;2023-05-10T09:02:26;101572.25;;;14.80;100.00
8627;BME280;4351;51.422;6.794;2023-05-10T09:05:12;101540.84;;;14.76;100.00
8627;BME280;4351;51.422;6.794;2023-05-10T09:08:00;101491.66;;;14.80;100.00
8627;BME280;4351;51.422;6.794;2023-05-10T09:10:43;101452.88;;;14.78;100.00
8627;BME280;4351;51.422;6.794;2023-05-10T09:13:28;101412.22;;;14.77;100.00
8627;BME280;4351;51.422;6.794;2023-05-10T09:16:13;101329.06;;;14.89;100.00
8627;BME280;4351;51.422;6.794;2023-05-10T09:18:58;101243.66;;;14.93;100.00
8627;BME280;4351;51.422;6.794;2023-05-10T09:21:34;101165.31;;;14.74;100.00
8627;BME280;4351;51.422;6.794;2023-05-10T09:24:13;101091.75;;;14.77;100.00
8627;BME280;4351;51.422;6.794;2023-05-10T09:26:50;101063.34;;;14.69;100.00
8627;BME280;4351;51.422;6.794;2023-05-10T09:29:42;101041.41;;;14.59;100.00
8627;BME280;4351;51.422;6.794;2023-05-10T09:32:38;101020.06;;;14.79;100.00
8627;BME280;4351;51.422;6.794;2023-05-10T09:35:20;101023.53;;;14.81;100.00
8627;BME280;4351;51.422;6.794;2023-05-10T09:38:03;101027.47;;;14.77;100.00
8627;BME280;4351;51.422;6.794;2023-05-10T09:40:53;101010.53;;;14.87;100.00
8627;BME280;4351;51.422;6.794;2023-05-10T09:43:37;100957.31;;;14.84;100.00
8627;BME280;4351;51.422;6.794;2023-05-10T09:46:16;100910.94;;;14.74;100.00
8627;BME280;4351;51.422;6.794;2023-05-10T09:48:48;100890.88;;;14.64;100.00
8627;BME280;4351;51.422;6.794;2023-05-10T10:00:26;100816.22;;;14.94;100.00
8627;BME280;4351;51.422;6.794;2023-05-10T10:03:03;100803.13;;;14.88;100.00
8627;BME280;4351;51.422;6.794;2023-05-10T10:05:40;100803.44;;;14.71;100.00
8627;BME280;4351;51.422;6.794;2023-05-10T10:08:17;100831.16;;;14.64;100.00
8627;BME280;4351;51.422;6.794;2023-05-10T10:10:58;100849.31;;;14.63;100.00
8627;BME280;4351;51.422;6.794;2023-05-10T10:13:35;100862.50;;;14.56;100.00
8627;BME280;4351;51.422;6.794;2023-05-10T10:16:13;100876.91;;;14.81;100.00
8627;BME280;4351;51.422;6.794;2023-05-10T10:18:53;100886.13;;;14.67;100.00
8627;BME280;4351;51.422;6.794;2023-05-10T10:21:37;100886.22;;;14.90;100.00
8627;BME280;4351;51.422;6.794;2023-05-10T10:24:19;100860.94;;;14.77;100.00
8627;BME280;4351;51.422;6.794;2023-05-10T10:27:09;100860.81;;;14.67;100.00
8627;BME280;4351;51.422;6.794;2023-05-10T10:30:00;100886.69;;;14.84;100.00
8627;BME280;4351;51.422;6.794;2023-05-10T10:32:46;100925.50;;;14.73;100.00
8627;BME280;4351;51.422;6.794;2023-05-10T10:35:36;100932.25;;;14.92;100.00
8627;BME280;4351;51.422;6.794;2023-05-10T10:38:14;100899.31;;;14.85;100.00
8627;BME280;4351;51.422;6.794;2023-05-10T10:41:01;100923.75;;;14.85;100.00
8627;BME280;4351;51.422;6.794;2023-05-10T10:43:36;100974.16;;;15.01;100.00
8627;BME280;4351;51.422;6.794;2023-05-10T10:46:16;100962.06;;;14.80;100.00
8627;BME280;4351;51.422;6.794;2023-05-10T10:49:09;100958.59;;;15.03;100.00
8627;BME280;4351;51.422;6.794;2023-05-10T10:52:14;100923.06;;;14.81;100.00
8627;BME280;4351;51.422;6.794;2023-05-10T10:54:58;100960.91;;;14.85;100.00
8627;BME280;4351;51.422;6.794;2023-05-10T10:57:46;100978.38;;;14.80;100.00
8627;BME280;4351;51.422;6.794;2023-05-10T11:00:35;101024.28;;;14.46;100.00
8627;BME280;4351;51.422;6.794;2023-05-10T11:03:19;101074.88;;;14.47;100.00
8627;BME280;4351;51.422;6.794;2023-05-10T11:05:58;101154.16;;;14.52;100.00
8627;BME280;4351;51.422;6.794;2023-05-10T11:08:42;101217.34;;;14.54;100.00
8627;BME280;4351;51.422;6.794;2023-05-10T11:11:22;101260.34;;;14.47;100.00
8627;BME280;4351;51.422;6.794;2023-05-10T11:13:51;101297.47;;;14.47;100.00
8627;BME280;4351;51.422;6.794;2023-05-10T11:16:23;101331.38;;;14.54;100.00
8627;BME280;4351;51.422;6.794;2023-05-10T11:19:02;101382.00;;;14.68;100.00
8627;BME280;4351;51.422;6.794;2023-05-10T11:21:48;101377.53;;;14.95;100.00
8627;BME280;4351;51.422;6.794;2023-05-10T11:24:26;101351.88;;;14.86;100.00
8627;BME280;4351;51.422;6.794;2023-05-10T11:27:09;101304.28;;;15.07;100.00
8627;BME280;4351;51.422;6.794;2023-05-10T11:29:51;101211.38;;;15.01;100.00
8627;BME280;4351;51.422;6.794;2023-05-10T11:32:30;101148.88;;;15.01;100.00
8627;BME280;4351;51.422;6.794;2023-05-10T11:35:09;101103.31;;;15.18;100.00
8627;BME280;4351;51.422;6.794;2023-05-10T11:37:47;101049.59;;;15.22;100.00
8627;BME280;4351;51.422;6.794;2023-05-10T11:40:27;100999.38;;;15.39;100.00
8627;BME280;4351;51.422;6.794;2023-05-10T11:43:09;100960.47;;;15.38;100.00
8627;BME280;4351;51.422;6.794;2023-05-10T11:45:54;100915.25;;;15.49;100.00
8627;BME280;4351;51.422;6.794;2023-05-10T11:48:29;100850.41;;;15.44;100.00
8627;BME280;4351;51.422;6.794;2023-05-10T11:51:06;100809.38;;;15.47;100.00
8627;BME280;4351;51.422;6.794;2023-05-10T11:53:49;100797.38;;;15.61;100.00
8627;BME280;4351;51.422;6.794;2023-05-10T11:56:28;100750.28;;;15.61;100.00
8627;BME280;4351;51.422;6.794;2023-05-10T11:59:15;100700.25;;;15.52;100.00
8627;BME280;4351;51.422;6.794;2023-05-10T12:01:58;100669.91;;;15.35;100.00
8627;BME280;4351;51.422;6.794;2023-05-10T12:04:37;100651.50;;;15.39;100.00
8627;BME280;4351;51.422;6.794;2023-05-10T12:07:17;100643.56;;;15.47;100.00
8627;BME280;4351;51.422;6.794;2023-05-10T12:10:04;100647.56;;;15.65;100.00
8627;BME280;4351;51.422;6.794;2023-05-10T12:12:46;100644.63;;;15.68;100.00
8627;BME280;4351;51.422;6.794;2023-05-10T12:15:29;100635.50;;;15.57;100.00
8627;BME280;4351;51.422;6.794;2023-05-10T12:18:09;100649.47;;;15.52;100.00
8627;BME280;4351;51.422;6.794;2023-05-10T12:20:51;100664.25;;;15.71;100.00
8627;BME280;4351;51.422;6.794;2023-05-10T12:23:30;100641.50;;;15.72;100.00
8627;BME280;4351;51.422;6.794;2023-05-10T12:26:10;100615.50;;;15.80;100.00
8627;BME280;4351;51.422;6.794;2023-05-10T12:28:50;100599.78;;;15.62;100.00
8627;BME280;4351;51.422;6.794;2023-05-10T12:31:33;100608.59;;;15.75;100.00
8627;BME280;4351;51.422;6.794;2023-05-10T12:34:23;100600.06;;;15.80;100.00
8627;BME280;4351;51.422;6.794;2023-05-10T12:37:03;100599.13;;;15.70;100.00
8627;BME280;4351;51.422;6.794;2023-05-10T12:39:50;100593.19;;;15.65;100.00
8627;BME280;4351;51.422;6.794;2023-05-10T12:42:27;100600.44;;;15.75;100.00
8627;BME280;4351;51.422;6.794;2023-05-10T12:45:08;100599.63;;;15.96;100.00
8627;BME280;4351;51.422;6.794;2023-05-10T12:47:55;100586.81;;;16.08;100.00
8627;BME280;4351;51.422;6.794;2023-05-10T12:50:33;100573.84;;;16.43;100.00
8627;BME280;4351;51.422;6.794;2023-05-10T12:53:09;100554.34;;;16.38;100.00
8627;BME280;4351;51.422;6.794;2023-05-10T12:55:50;100542.53;;;16.59;100.00
8627;BME280;4351;51.422;6.794;2023-05-10T12:58:30;100538.66;;;16.62;100.00
8627;BME280;4351;51.422;6.794;2023-05-10T13:01:19;100531.28;;;16.74;100.00
8627;BME280;4351;51.422;6.794;2023-05-10T13:04:06;100525.69;;;16.85;100.00
8627;BME280;4351;51.422;6.794;2023-05-10T13:06:43;100504.41;;;17.30;100.00
8627;BME280;4351;51.422;6.794;2023-05-10T13:09:11;100502.25;;;17.54;100.00
8627;BME280;4351;51.422;6.794;2023-05-10T13:11:43;100517.47;;;17.56;100.00
8627;BME280;4351;51.422;6.794;2023-05-10T13:14:24;100498.03;;;17.79;100.00
8627;BME280;4351;51.422;6.794;2023-05-10T13:17:09;100512.56;;;17.60;100.00
8627;BME280;4351;51.422;6.794;2023-05-10T13:19:46;100524.34;;;17.41;100.00
8627;BME280;4351;51.422;6.794;2023-05-10T13:22:27;100535.81;;;17.15;100.00
8627;BME280;4351;51.422;6.794;2023-05-10T13:25:20;100512.97;;;17.06;100.00
8627;BME280;4351;51.422;6.794;2023-05-10T13:27:58;100503.22;;;17.13;100.00
8627;BME280;4351;51.422;6.794;2023-05-10T13:30:44;100482.56;;;17.60;100.00
8627;BME280;4351;51.422;6.794;2023-05-10T13:33:23;100484.16;;;17.43;100.00
8627;BME280;4351;51.422;6.794;2023-05-10T13:36:09;100481.31;;;17.34;100.00
8627;BME280;4351;51.422;6.794;2023-05-10T13:38:50;100476.00;;;17.23;100.00
8627;BME280;4351;51.422;6.794;2023-05-10T13:41:21;100454.75;;;17.56;100.00
8627;BME280;4351;51.422;6.794;2023-05-10T13:43:58;100462.88;;;17.66;100.00
8627;BME280;4351;51.422;6.794;2023-05-10T13:46:39;100474.94;;;17.74;100.00
8627;BME280;4351;51.422;6.794;2023-05-10T13:49:13;100471.88;;;17.87;100.00
8627;BME280;4351;51.422;6.794;2023-05-10T13:51:43;100494.00;;;17.84;100.00
8627;BME280;4351;51.422;6.794;2023-05-10T13:54:16;100495.22;;;17.51;100.00
8627;BME280;4351;51.422;6.794;2023-05-10T13:57:00;100490.19;;;17.46;100.00
8627;BME280;4351;51.422;6.794;2023-05-10T13:59:33;100479.75;;;17.42;100.00
8627;BME280;4351;51.422;6.794;2023-05-10T14:02:10;100478.41;;;17.66;100.00
8627;BME280;4351;51.422;6.794;2023-05-10T14:04:49;100481.53;;;17.71;100.00
8627;BME280;4351;51.422;6.794;2023-05-10T14:07:21;100491.69;;;17.89;100.00
8627;BME280;4351;51.422;6.794;2023-05-10T14:09:58;100519.13;;;17.77;100.00
8627;BME280;4351;51.422;6.794;2023-05-10T14:12:42;100512.72;;;17.58;100.00
8627;BME280;4351;51.422;6.794;2023-05-10T14:15:22;100502.25;;;17.54;100.00
8627;BME280;4351;51.422;6.794;2023-05-10T14:18:03;100494.38;;;17.41;100.00